Time;durP1;ratioP1;P1;durP2;ratioP2;P2;SDS_P1;SDS_P2;PMS_P1;PMS_P2;Temp;Humidity;BMP_temperature;BMP_pressure;BME280_temperature;BME280_humidity;BME280_pressure;Samples;Min_cycle;Max_cycle;Signal;HPM_P1;HPM_P2
2021/12/18 00:02:22;;;;;;;18.73;12.55;;;4.40;77.40;;;;;;5054847;28;20017;-73
2021/12/18 00:04:47;;;;;;;16.85;11.82;;;4.40;77.20;;;;;;5054771;28;20086;-72
2021/12/18 00:07:13;;;;;;;16.88;12.02;;;4.40;77.20;;;;;;5054766;28;20028;-71
2021/12/18 00:09:40;;;;;;;18.48;11.90;;;4.40;77.10;;;;;;5054432;28;20381;-72
2021/12/18 00:12:06;;;;;;;18.20;11.90;;;4.40;76.90;;;;;;5054690;28;20036;-72
2021/12/18 00:14:32;;;;;;;17.23;11.35;;;4.40;76.70;;;;;;5054535;28;20025;-72
2021/12/18 00:16:58;;;;;;;15.93;10.85;;;4.30;76.90;;;;;;5054466;28;20031;-72
2021/12/18 00:19:26;;;;;;;17.42;11.93;;;4.30;77.00;;;;;;5054591;28;20025;-72
2021/12/18 00:21:53;;;;;;;19.65;13.30;;;4.40;76.90;;;;;;5054217;28;20017;-72
2021/12/18 00:24:19;;;;;;;19.23;12.93;;;4.40;76.70;;;;;;5054436;28;20230;-73
2021/12/18 00:26:45;;;;;;;22.63;14.00;;;4.40;76.40;;;;;;5054329;28;20028;-72
2021/12/18 00:29:11;;;;;;;18.20;11.95;;;4.40;76.30;;;;;;5054244;28;20390;-72
2021/12/18 00:31:37;;;;;;;20.48;13.15;;;4.30;76.30;;;;;;5054161;28;20025;-72
2021/12/18 00:34:02;;;;;;;18.90;12.43;;;4.30;76.10;;;;;;5053572;28;20055;-72
2021/12/18 00:36:28;;;;;;;18.52;11.93;;;4.20;76.10;;;;;;5054101;28;20579;-73
2021/12/18 00:38:53;;;;;;;18.85;12.50;;;4.20;76.00;;;;;;5054096;28;20100;-74
2021/12/18 00:42:18;;;;;;;19.27;12.32;;;4.20;76.10;;;;;;5054082;28;20539;-74
2021/12/18 00:44:05;;;;;;;20.63;12.85;;;4.10;76.20;;;;;;5033065;28;20366;-72
2021/12/18 00:46:37;;;;;;;18.35;11.60;;;4.10;76.40;;;;;;5053983;28;20075;-72
2021/12/18 00:49:06;;;;;;;19.85;13.07;;;4.10;76.50;;;;;;5053954;28;20454;-73
2021/12/18 00:51:32;;;;;;;19.25;12.80;;;4.00;76.60;;;;;;5053950;28;20111;-73
2021/12/18 00:53:58;;;;;;;16.92;11.80;;;4.00;76.70;;;;;;5053924;28;20067;-72
2021/12/18 00:56:24;;;;;;;18.70;12.07;;;4.00;76.70;;;;;;5053856;28;20036;-72
2021/12/18 00:58:51;;;;;;;19.92;12.98;;;4.00;76.80;;;;;;5035857;28;20567;-73
2021/12/18 01:01:19;;;;;;;20.90;13.60;;;4.00;76.80;;;;;;5053776;28;20473;-74
2021/12/18 01:03:46;;;;;;;19.45;12.52;;;3.90;76.90;;;;;;5053693;28;20035;-74
2021/12/18 01:06:12;;;;;;;18.45;11.18;;;4.00;77.00;;;;;;5053673;28;20028;-74
2021/12/18 01:08:38;;;;;;;20.08;12.70;;;3.90;77.10;;;;;;5053429;28;20025;-73
2021/12/18 01:14:09;;;;;;;20.58;13.07;;;4.00;77.00;;;;;;5053493;28;20116;-73
2021/12/18 01:24:45;;;;;;;19.77;12.95;;;4.00;77.20;;;;;;5053341;28;20099;-73
2021/12/18 01:27:10;;;;;;;20.30;13.70;;;4.00;77.10;;;;;;5053339;28;20120;-73
2021/12/18 01:29:36;;;;;;;22.92;14.10;;;3.90;76.90;;;;;;5053211;28;20032;-73
2021/12/18 01:32:01;;;;;;;19.00;12.40;;;3.90;76.90;;;;;;5053196;28;20558;-73
2021/12/18 01:34:27;;;;;;;24.08;13.95;;;3.90;77.10;;;;;;5053183;28;20049;-73
2021/12/18 01:36:53;;;;;;;22.27;13.23;;;3.90;77.20;;;;;;5053380;28;20469;-73
2021/12/18 01:39:18;;;;;;;23.13;14.68;;;3.90;77.20;;;;;;5053190;28;20095;-73
2021/12/18 01:51:13;;;;;;;32.25;17.60;;;3.80;77.40;;;;;;5053002;28;20358;-73
2021/12/18 01:52:32;;;;;;;27.52;15.57;;;3.70;77.70;;;;;;5053207;28;20055;-73
2021/12/18 01:54:58;;;;;;;23.25;13.77;;;3.60;77.70;;;;;;5052964;28;20013;-73
2021/12/18 01:57:24;;;;;;;21.83;12.90;;;3.60;77.90;;;;;;5052871;28;20037;-73
2021/12/18 01:59:51;;;;;;;21.50;13.13;;;3.50;78.00;;;;;;5052723;28;20591;-74
2021/12/18 02:02:17;;;;;;;23.73;13.77;;;3.40;77.80;;;;;;5052678;28;20119;-74
2021/12/18 02:04:42;;;;;;;24.20;13.10;;;3.40;77.80;;;;;;5052599;28;20104;-74
2021/12/18 02:07:08;;;;;;;19.70;12.73;;;3.30;77.70;;;;;;5052907;28;20171;-73
2021/12/18 02:09:59;;;;;;;21.08;12.45;;;3.30;77.80;;;;;;5052540;28;20488;-73
2021/12/18 02:12:29;;;;;;;18.95;11.98;;;3.20;78.00;;;;;;5052333;28;20104;-73
2021/12/18 02:20:39;;;;;;;20.80;12.15;;;3.10;78.20;;;;;;5052931;28;20078;-74
2021/12/18 02:23:06;;;;;;;18.08;11.20;;;3.00;78.10;;;;;;5052719;28;20025;-73
2021/12/18 02:25:34;;;;;;;18.67;11.35;;;2.90;78.20;;;;;;5052630;28;20366;-74
2021/12/18 02:28:00;;;;;;;19.20;11.82;;;2.80;78.30;;;;;;5034820;28;20036;-73
2021/12/18 02:30:26;;;;;;;18.90;11.27;;;2.70;78.60;;;;;;5052651;28;20060;-74
2021/12/18 02:32:53;;;;;;;18.90;11.02;;;2.60;78.80;;;;;;5052353;28;20400;-74
2021/12/18 02:35:39;;;;;;;21.52;11.98;;;2.60;78.90;;;;;;5052604;28;20029;-73
2021/12/18 02:38:12;;;;;;;16.90;10.05;;;2.60;78.90;;;;;;5052783;28;20416;-73
2021/12/18 02:43:14;;;;;;;19.70;11.75;;;2.40;78.90;;;;;;5052584;28;20025;-74
2021/12/18 02:45:40;;;;;;;20.25;11.80;;;2.40;79.20;;;;;;5052430;28;20083;-73
2021/12/18 02:48:05;;;;;;;19.77;11.98;;;2.40;79.30;;;;;;5052479;28;20025;-74
2021/12/18 02:50:31;;;;;;;18.73;11.63;;;2.40;79.40;;;;;;5034492;28;20033;-73
2021/12/18 02:52:57;;;;;;;18.83;11.88;;;2.40;79.40;;;;;;5052338;28;20048;-73
2021/12/18 02:55:22;;;;;;;20.27;11.82;;;2.30;79.40;;;;;;5053080;28;20056;-74
2021/12/18 02:57:48;;;;;;;18.67;11.73;;;2.30;79.50;;;;;;5056106;28;20095;-73
2021/12/18 03:00:14;;;;;;;21.75;12.88;;;2.30;79.70;;;;;;5056090;28;20033;-73
2021/12/18 03:02:43;;;;;;;18.55;11.95;;;2.30;79.70;;;;;;5055701;28;20086;-73
2021/12/18 03:05:13;;;;;;;17.42;10.88;;;2.30;79.60;;;;;;5056031;28;20397;-73
2021/12/18 03:07:38;;;;;;;19.02;11.23;;;2.20;79.40;;;;;;5055971;28;20049;-73
2021/12/18 03:23:49;;;;;;;21.08;11.93;;;2.10;79.60;;;;;;5055530;28;20031;-73
2021/12/18 03:26:15;;;;;;;19.05;12.25;;;2.10;79.60;;;;;;5055647;28;20021;-74
2021/12/18 03:28:41;;;;;;;23.70;13.18;;;2.10;79.60;;;;;;5055432;28;20025;-74
2021/12/18 03:31:07;;;;;;;21.38;12.63;;;2.20;79.80;;;;;;5055485;28;20413;-73
2021/12/18 03:33:33;;;;;;;21.15;12.25;;;2.20;79.60;;;;;;5055241;28;20041;-74
2021/12/18 03:35:58;;;;;;;21.45;12.60;;;2.30;79.70;;;;;;5055412;28;20032;-73
2021/12/18 03:38:24;;;;;;;21.08;13.10;;;2.30;79.50;;;;;;5055313;28;20017;-73
2021/12/18 03:40:50;;;;;;;20.52;12.02;;;2.30;79.30;;;;;;5055248;28;20025;-73
2021/12/18 03:43:15;;;;;;;21.05;12.45;;;2.30;79.00;;;;;;5055226;28;20478;-74
2021/12/18 03:45:41;;;;;;;23.15;12.98;;;2.30;79.20;;;;;;5055115;28;20040;-73
2021/12/18 03:48:07;;;;;;;22.83;13.40;;;2.30;79.10;;;;;;5037249;28;20021;-73
2021/12/18 03:50:33;;;;;;;22.15;12.77;;;2.30;78.90;;;;;;5054974;28;20083;-74
2021/12/18 03:52:59;;;;;;;20.23;11.77;;;2.20;78.90;;;;;;5054942;28;20381;-74
2021/12/18 03:55:26;;;;;;;21.52;12.30;;;2.20;79.00;;;;;;5054859;28;20029;-73
2021/12/18 03:57:52;;;;;;;25.30;14.15;;;2.20;79.20;;;;;;5055213;28;20017;-75
2021/12/18 04:00:18;;;;;;;28.58;16.08;;;2.10;79.50;;;;;;5036989;28;20049;-73
2021/12/18 04:02:44;;;;;;;34.50;19.60;;;2.10;79.50;;;;;;5054821;28;20103;-74
2021/12/18 04:05:11;;;;;;;34.67;19.80;;;2.20;79.60;;;;;;5054787;28;20048;-73
2021/12/18 04:07:46;;;;;;;31.13;17.38;;;2.10;79.70;;;;;;5053758;28;20041;-73
2021/12/18 04:10:14;;;;;;;30.88;17.33;;;2.10;79.90;;;;;;5054617;28;20051;-73
2021/12/18 04:12:40;;;;;;;25.30;13.85;;;2.10;80.20;;;;;;5054634;28;20027;-73
2021/12/18 04:15:06;;;;;;;25.30;13.40;;;2.10;80.30;;;;;;5054707;28;20103;-73
2021/12/18 04:17:32;;;;;;;23.92;13.57;;;2.20;80.30;;;;;;5054567;28;20481;-74
2021/12/18 04:19:58;;;;;;;22.38;14.10;;;2.20;80.20;;;;;;5054676;28;20025;-73
2021/12/18 04:22:24;;;;;;;23.38;14.02;;;2.20;80.20;;;;;;5054481;28;20100;-73
2021/12/18 04:24:50;;;;;;;24.52;13.90;;;2.20;80.10;;;;;;5054394;28;20037;-73
2021/12/18 04:27:15;;;;;;;21.77;12.30;;;2.10;80.20;;;;;;5054484;28;20036;-73
2021/12/18 04:29:41;;;;;;;20.35;11.52;;;2.10;80.20;;;;;;5036271;28;20401;-73
2021/12/18 04:32:07;;;;;;;21.52;12.38;;;2.10;80.20;;;;;;5036529;28;20035;-73
2021/12/18 04:34:32;;;;;;;20.95;12.23;;;2.10;80.40;;;;;;5054117;28;20076;-73
2021/12/18 04:36:58;;;;;;;23.23;13.10;;;2.10;80.50;;;;;;5054287;28;20060;-73
2021/12/18 04:39:23;;;;;;;20.65;12.45;;;2.10;80.50;;;;;;5054133;28;20021;-73
2021/12/18 04:41:52;;;;;;;21.17;13.38;;;2.10;80.40;;;;;;5054065;28;20031;-74
2021/12/18 04:44:18;;;;;;;25.13;14.25;;;2.10;80.40;;;;;;5053933;28;20028;-74
2021/12/18 04:46:44;;;;;;;22.17;13.70;;;2.10;81.30;;;;;;5036042;28;20103;-73
2021/12/18 04:49:10;;;;;;;27.17;15.27;;;2.10;81.00;;;;;;5053863;28;20416;-74
2021/12/18 04:51:35;;;;;;;28.65;15.00;;;2.10;82.10;;;;;;5053866;28;20036;-74
2021/12/18 04:54:01;;;;;;;27.35;14.23;;;2.10;83.50;;;;;;5053899;28;20021;-74
2021/12/18 04:56:27;;;;;;;23.38;13.60;;;2.10;84.10;;;;;;5053854;28;20028;-73
2021/12/18 04:58:52;;;;;;;23.73;13.90;;;2.10;84.10;;;;;;5053608;28;20025;-73
2021/12/18 05:01:18;;;;;;;23.90;13.02;;;2.10;83.00;;;;;;5053844;28;20458;-73
2021/12/18 05:03:45;;;;;;;25.35;13.60;;;2.10;83.00;;;;;;5053732;28;20029;-73
2021/12/18 05:06:11;;;;;;;29.45;15.07;;;2.10;84.00;;;;;;5053597;28;20020;-73
2021/12/18 05:08:37;;;;;;;28.33;15.40;;;2.10;84.30;;;;;;5053569;28;20424;-72
2021/12/18 05:11:02;;;;;;;33.28;18.98;;;2.10;84.10;;;;;;5053528;28;20091;-72
2021/12/18 05:13:28;;;;;;;35.13;19.15;;;2.10;84.00;;;;;;5053456;28;20483;-72
2021/12/18 05:15:53;;;;;;;38.45;20.60;;;2.10;83.80;;;;;;5035658;28;20024;-72
2021/12/18 05:18:19;;;;;;;42.25;20.67;;;2.10;83.60;;;;;;5053517;28;20025;-72
2021/12/18 05:20:45;;;;;;;33.17;18.55;;;2.00;83.30;;;;;;5053386;28;20055;-72
2021/12/18 05:23:10;;;;;;;41.13;23.05;;;2.00;83.50;;;;;;5053405;28;20025;-72
2021/12/18 05:25:36;;;;;;;37.75;20.15;;;1.90;83.60;;;;;;5053229;28;20029;-74
2021/12/18 05:28:02;;;;;;;42.50;22.10;;;2.00;83.80;;;;;;5053332;28;20021;-74
2021/12/18 05:30:27;;;;;;;38.88;21.42;;;1.90;83.90;;;;;;5035324;28;20408;-72
2021/12/18 05:32:53;;;;;;;45.33;24.17;;;2.00;84.20;;;;;;5052324;28;20041;-72
2021/12/18 05:35:18;;;;;;;42.35;22.02;;;2.00;84.30;;;;;;5053073;28;20465;-73
2021/12/18 05:37:53;;;;;;;38.15;20.65;;;2.00;84.60;;;;;;5053133;28;20127;-73
2021/12/18 05:40:22;;;;;;;42.95;21.90;;;2.10;84.40;;;;;;5053047;28;20472;-73
2021/12/18 05:42:49;;;;;;;41.88;22.25;;;2.10;84.30;;;;;;5052936;28;20025;-73
2021/12/18 05:45:15;;;;;;;52.05;24.08;;;2.10;84.40;;;;;;5052932;28;20035;-73
2021/12/18 05:47:43;;;;;;;41.40;19.55;;;2.00;84.70;;;;;;5052959;28;20017;-73
2021/12/18 05:50:10;;;;;;;40.55;20.05;;;2.00;85.00;;;;;;5052856;28;20024;-75
2021/12/18 05:52:36;;;;;;;40.40;20.38;;;1.90;85.20;;;;;;5052916;28;20091;-74
2021/12/18 05:55:02;;;;;;;42.85;20.98;;;1.90;85.30;;;;;;5052865;28;20021;-73
2021/12/18 05:57:28;;;;;;;39.03;19.52;;;2.00;85.50;;;;;;5052698;28;20557;-73
2021/12/18 05:59:53;;;;;;;37.55;19.48;;;2.10;85.70;;;;;;5052772;28;20029;-73
2021/12/18 06:02:19;;;;;;;37.97;19.63;;;2.10;85.40;;;;;;5052881;28;20093;-73
2021/12/18 06:04:45;;;;;;;36.78;18.55;;;2.20;85.20;;;;;;5052749;28;20389;-74
2021/12/18 06:07:17;;;;;;;47.25;21.33;;;2.20;85.00;;;;;;5052789;28;20104;-74
2021/12/18 06:09:43;;;;;;;41.35;20.90;;;2.10;84.90;;;;;;5052735;28;20037;-73
2021/12/18 06:12:10;;;;;;;40.08;20.65;;;2.10;85.30;;;;;;5052855;28;20100;-75
2021/12/18 06:14:36;;;;;;;37.70;19.30;;;2.00;85.70;;;;;;5052641;28;20476;-73
2021/12/18 06:17:02;;;;;;;38.45;20.05;;;2.00;85.60;;;;;;5052824;28;20041;-73
2021/12/18 06:19:27;;;;;;;38.97;18.52;;;2.00;85.50;;;;;;5052775;28;20057;-72
2021/12/18 06:21:53;;;;;;;34.45;18.02;;;2.00;85.40;;;;;;5052522;28;20079;-72
2021/12/18 06:24:19;;;;;;;32.38;17.13;;;2.10;85.10;;;;;;5052596;28;20024;-72
2021/12/18 06:26:44;;;;;;;33.75;18.15;;;2.10;85.00;;;;;;5052459;28;20029;-72
2021/12/18 06:29:11;;;;;;;34.35;17.75;;;2.10;84.70;;;;;;5052561;28;20052;-72
2021/12/18 06:31:37;;;;;;;35.08;19.15;;;2.20;84.30;;;;;;5055175;28;20108;-72
2021/12/18 06:34:03;;;;;;;33.78;18.25;;;2.30;84.10;;;;;;5056187;28;20044;-72
2021/12/18 06:36:29;;;;;;;27.65;16.40;;;2.30;83.70;;;;;;5056545;28;20097;-75
2021/12/18 06:38:55;;;;;;;40.40;20.23;;;2.30;83.20;;;;;;5056352;28;20025;-74
2021/12/18 06:41:20;;;;;;;34.05;18.52;;;2.30;82.80;;;;;;5056278;28;20045;-74
2021/12/18 06:43:46;;;;;;;32.95;18.20;;;2.30;82.50;;;;;;5056269;28;20481;-79
2021/12/18 06:46:12;;;;;;;32.92;17.15;;;2.40;82.40;;;;;;5056425;28;20025;-77
2021/12/18 06:48:38;;;;;;;37.45;19.52;;;2.40;82.40;;;;;;5038220;28;20488;-74
2021/12/18 06:51:03;;;;;;;41.00;21.10;;;2.40;82.10;;;;;;5056129;28;20044;-75
2021/12/18 06:53:29;;;;;;;42.95;21.90;;;2.30;82.10;;;;;;5056040;28;20031;-74
2021/12/18 06:55:55;;;;;;;42.78;21.38;;;2.30;82.40;;;;;;5056297;28;20978;-73
2021/12/18 06:58:21;;;;;;;45.22;21.35;;;2.30;82.60;;;;;;5056057;28;20064;-77
2021/12/18 07:00:46;;;;;;;46.17;23.42;;;2.30;82.80;;;;;;5056292;28;20033;-73
2021/12/18 07:03:12;;;;;;;49.05;24.55;;;2.30;82.80;;;;;;5055928;28;20029;-78
2021/12/18 07:05:38;;;;;;;47.53;23.48;;;2.30;82.80;;;;;;5056046;28;20025;-74
2021/12/18 07:08:04;;;;;;;46.10;22.63;;;2.30;82.80;;;;;;5055835;28;20100;-77
2021/12/18 07:10:31;;;;;;;40.08;21.30;;;2.40;82.80;;;;;;5055725;28;20044;-74
2021/12/18 07:12:57;;;;;;;35.28;18.40;;;2.40;82.70;;;;;;5054992;28;20066;-73
2021/12/18 07:15:23;;;;;;;36.95;18.40;;;2.50;82.80;;;;;;5052126;28;20529;-76
2021/12/18 07:17:48;;;;;;;34.10;17.05;;;2.40;82.70;;;;;;5037984;28;20112;-74
2021/12/18 07:20:14;;;;;;;36.83;17.83;;;2.50;82.70;;;;;;5055724;28;20057;-77
2021/12/18 07:22:40;;;;;;;33.47;15.40;;;2.40;82.80;;;;;;5055518;28;20087;-73
2021/12/18 07:25:06;;;;;;;29.35;14.90;;;2.40;82.90;;;;;;5055741;28;20068;-74
2021/12/18 07:27:32;;;;;;;30.52;14.63;;;2.40;83.00;;;;;;5055264;28;20075;-74
2021/12/18 07:29:57;;;;;;;29.25;14.95;;;2.40;83.00;;;;;;5055296;28;20040;-75
2021/12/18 07:32:23;;;;;;;28.38;13.73;;;2.30;83.40;;;;;;5055134;28;20029;-73
2021/12/18 07:34:48;;;;;;;28.15;13.95;;;2.40;83.50;;;;;;5055239;28;20041;-74
2021/12/18 07:37:14;;;;;;;29.98;14.38;;;2.40;83.40;;;;;;5055351;28;20017;-74
2021/12/18 07:39:40;;;;;;;29.10;14.23;;;2.40;83.50;;;;;;5054904;28;20029;-73
2021/12/18 07:42:05;;;;;;;33.40;16.35;;;2.40;83.40;;;;;;5053866;28;20025;-74
2021/12/18 07:44:31;;;;;;;38.13;17.75;;;2.40;83.60;;;;;;5055037;28;20021;-76
2021/12/18 07:46:57;;;;;;;34.95;16.73;;;2.40;83.40;;;;;;5054895;28;20029;-73
2021/12/18 07:49:22;;;;;;;34.20;16.55;;;2.40;83.30;;;;;;5054691;28;20056;-74
2021/12/18 07:51:48;;;;;;;34.20;16.33;;;2.40;83.40;;;;;;5054912;28;20036;-73
2021/12/18 07:54:13;;;;;;;37.28;17.35;;;2.40;83.50;;;;;;5054742;28;20021;-72
2021/12/18 07:56:39;;;;;;;31.20;15.90;;;2.40;83.50;;;;;;5054753;28;20105;-73
2021/12/18 07:59:05;;;;;;;35.42;17.38;;;2.40;83.60;;;;;;5054745;28;20485;-74
2021/12/18 08:01:30;;;;;;;30.60;15.85;;;2.40;83.70;;;;;;5054712;28;20374;-73
2021/12/18 08:03:56;;;;;;;31.90;16.83;;;2.50;83.70;;;;;;5054388;28;20017;-74
2021/12/18 08:06:22;;;;;;;24.60;13.35;;;2.50;84.70;;;;;;5054564;28;20029;-78
2021/12/18 08:08:48;;;;;;;30.20;15.35;;;2.50;83.70;;;;;;5054656;28;20074;-74
2021/12/18 08:11:14;;;;;;;27.70;14.20;;;2.60;83.80;;;;;;5054340;28;20195;-75
2021/12/18 08:13:40;;;;;;;29.67;14.30;;;2.60;84.50;;;;;;5054344;28;20381;-74
2021/12/18 08:16:06;;;;;;;32.28;16.15;;;2.70;84.40;;;;;;5054433;28;20104;-75
2021/12/18 08:18:32;;;;;;;29.38;15.25;;;2.80;84.00;;;;;;5054307;28;20029;-76
2021/12/18 08:20:58;;;;;;;29.35;14.95;;;2.80;83.50;;;;;;5036490;28;20055;-76
2021/12/18 08:23:23;;;;;;;29.65;14.90;;;2.80;83.20;;;;;;5054411;28;20113;-74
2021/12/18 08:25:49;;;;;;;37.17;16.35;;;2.80;83.20;;;;;;5053822;28;20532;-82
2021/12/18 08:28:15;;;;;;;32.92;16.60;;;3.40;93.60;;;;;;5054242;28;20032;-81
2021/12/18 08:30:41;;;;;;;31.92;16.42;;;4.00;91.50;;;;;;5053999;28;20029;-83
2021/12/18 08:33:07;;;;;;;26.90;14.55;;;4.10;86.80;;;;;;5054134;28;20132;-82
2021/12/18 08:35:33;;;;;;;29.65;14.43;;;4.50;83.50;;;;;;5054148;28;20032;-82
2021/12/18 08:38:00;;;;;;;27.45;15.43;;;5.00;79.80;;;;;;5054018;28;20377;-83
2021/12/18 08:40:27;;;;;;;25.58;13.77;;;5.10;77.50;;;;;;5053900;28;20074;-83
2021/12/18 08:42:53;;;;;;;22.75;12.82;;;5.50;75.00;;;;;;5055214;28;20025;-81
2021/12/18 08:45:19;;;;;;;20.17;11.60;;;5.90;72.50;;;;;;5054590;28;20028;-81
2021/12/18 08:47:45;;;;;;;22.25;12.32;;;6.10;70.90;;;;;;5053589;28;20536;-82
2021/12/18 08:50:17;;;;;;;21.27;11.88;;;6.20;69.30;;;;;;5053822;28;20119;-75
2021/12/18 08:52:47;;;;;;;23.00;12.88;;;5.90;68.60;;;;;;5053613;28;20021;-73
2021/12/18 08:55:14;;;;;;;23.75;13.40;;;5.50;70.00;;;;;;5053558;28;20017;-73
2021/12/18 08:57:39;;;;;;;23.60;12.45;;;5.10;71.90;;;;;;5053627;28;20059;-73
2021/12/18 09:00:09;;;;;;;20.98;11.73;;;4.80;72.40;;;;;;5053374;28;20028;-74
2021/12/18 09:02:35;;;;;;;21.08;12.15;;;4.50;72.70;;;;;;5035331;28;20123;-74
2021/12/18 09:05:00;;;;;;;23.15;11.57;;;4.20;73.20;;;;;;5053528;28;20020;-74
2021/12/18 09:07:27;;;;;;;19.38;10.35;;;3.90;74.30;;;;;;5053393;28;20021;-73
2021/12/18 09:09:52;;;;;;;17.75;9.57;;;3.70;75.20;;;;;;5053319;28;20429;-74
2021/12/18 09:12:19;;;;;;;17.20;10.27;;;3.60;75.80;;;;;;5053319;28;20036;-74
2021/12/18 09:14:45;;;;;;;20.17;10.88;;;3.50;76.30;;;;;;5053245;28;20389;-74
2021/12/18 09:17:10;;;;;;;18.60;11.00;;;3.40;76.40;;;;;;5053373;28;20025;-74
2021/12/18 09:19:37;;;;;;;17.92;9.68;;;3.40;76.80;;;;;;5052993;28;20055;-73
2021/12/18 09:22:06;;;;;;;20.10;10.63;;;3.30;77.10;;;;;;5052933;28;20017;-75
2021/12/18 09:24:33;;;;;;;15.88;8.60;;;3.20;77.40;;;;;;5052913;28;20025;-74
2021/12/18 09:26:59;;;;;;;22.15;11.07;;;3.10;77.30;;;;;;5052875;28;20025;-74
2021/12/18 09:29:25;;;;;;;18.85;10.07;;;3.10;77.50;;;;;;5052823;28;20032;-75
2021/12/18 09:31:50;;;;;;;22.17;11.25;;;2.90;78.20;;;;;;5034999;28;20032;-74
2021/12/18 09:34:16;;;;;;;24.20;11.82;;;2.90;78.70;;;;;;5052905;28;20415;-77
2021/12/18 09:36:42;;;;;;;20.55;11.88;;;2.60;79.70;;;;;;5053083;28;20105;-75
2021/12/18 09:39:08;;;;;;;22.45;11.57;;;2.50;80.40;;;;;;5035155;28;20045;-74
2021/12/18 09:41:34;;;;;;;24.52;12.20;;;2.40;81.40;;;;;;5052839;28;20032;-74
2021/12/18 09:43:59;;;;;;;21.98;11.40;;;2.20;82.20;;;;;;5051931;28;20029;-74
2021/12/18 09:46:25;;;;;;;20.85;10.18;;;2.10;82.70;;;;;;5052510;28;20066;-74
2021/12/18 09:48:51;;;;;;;19.17;10.10;;;2.20;82.70;;;;;;5052842;28;20036;-74
2021/12/18 09:51:27;;;;;;;19.90;10.30;;;2.40;82.50;;;;;;5052672;28;20040;-74
2021/12/18 09:53:54;;;;;;;19.25;9.48;;;2.40;82.10;;;;;;5052644;28;20377;-74
2021/12/18 09:56:22;;;;;;;26.58;13.10;;;2.70;82.00;;;;;;5052577;28;20397;-74
2021/12/18 09:58:48;;;;;;;24.15;12.40;;;2.80;81.50;;;;;;5052497;28;20021;-74
2021/12/18 10:01:14;;;;;;;25.42;11.75;;;2.70;81.00;;;;;;5052328;28;20104;-74
2021/12/18 10:03:58;;;;;;;20.48;10.27;;;2.70;80.90;;;;;;5052512;28;20033;-74
2021/12/18 10:06:44;;;;;;;23.33;11.63;;;2.70;80.60;;;;;;5051864;28;20021;-74
2021/12/18 10:09:22;;;;;;;24.40;12.95;;;2.50;81.20;;;;;;5052498;28;20047;-74
2021/12/18 10:11:50;;;;;;;27.48;13.23;;;2.60;81.20;;;;;;5052470;28;20114;-74
2021/12/18 10:14:17;;;;;;;24.42;12.77;;;2.60;80.90;;;;;;5052439;28;20017;-74
2021/12/18 10:16:49;;;;;;;29.42;14.65;;;2.60;81.10;;;;;;5052318;28;20175;-74
2021/12/18 10:19:24;;;;;;;35.17;17.45;;;2.50;81.30;;;;;;5052350;28;20385;-74
2021/12/18 10:22:11;;;;;;;32.10;15.40;;;2.40;81.40;;;;;;5052162;28;20381;-74
2021/12/18 10:24:40;;;;;;;30.42;15.75;;;2.50;81.80;;;;;;5051902;28;20030;-74
2021/12/18 10:27:22;;;;;;;27.58;13.02;;;2.50;81.90;;;;;;5051882;28;20029;-74
2021/12/18 10:29:53;;;;;;;33.80;16.63;;;2.50;81.80;;;;;;5051888;28;20417;-74
2021/12/18 10:32:22;;;;;;;36.75;17.33;;;2.40;82.60;;;;;;5052031;28;20107;-75
2021/12/18 10:34:56;;;;;;;33.53;16.67;;;2.50;82.80;;;;;;5052152;28;20037;-74
2021/12/18 10:37:27;;;;;;;36.63;19.45;;;2.50;82.40;;;;;;5052227;28;20025;-74
2021/12/18 10:40:09;;;;;;;37.22;16.90;;;2.30;83.30;;;;;;5052239;28;20112;-74
2021/12/18 10:42:39;;;;;;;32.72;15.65;;;2.30;84.40;;;;;;5051967;28;20465;-74
2021/12/18 10:45:09;;;;;;;29.48;16.42;;;2.30;84.00;;;;;;5052013;28;20068;-74
2021/12/18 10:48:08;;;;;;;41.75;19.73;;;2.10;84.60;;;;;;5051999;28;20017;-74
2021/12/18 10:50:50;;;;;;;43.03;20.27;;;2.10;84.70;;;;;;5051631;28;20041;-73
2021/12/18 10:53:19;;;;;;;39.97;19.40;;;2.10;85.50;;;;;;5052148;28;20021;-74
2021/12/18 10:55:48;;;;;;;43.10;22.25;;;2.10;85.70;;;;;;5051384;28;20496;-74
2021/12/18 10:58:24;;;;;;;43.30;21.00;;;2.20;84.90;;;;;;5051664;28;20106;-74
2021/12/18 11:01:13;;;;;;;41.60;19.40;;;2.30;84.90;;;;;;5052037;28;20032;-74
2021/12/18 11:03:45;;;;;;;42.90;21.15;;;2.30;85.50;;;;;;5043456;28;20111;-74
2021/12/18 11:06:35;;;;;;;45.97;23.05;;;2.50;84.70;;;;;;5051744;28;20064;-74
2021/12/18 11:09:12;;;;;;;63.03;29.85;;;2.70;84.40;;;;;;5051639;28;20017;-74
2021/12/18 11:14:11;;;;;;;48.15;23.88;;;3.00;82.80;;;;;;5051906;28;20044;-74
2021/12/18 11:16:38;;;;;;;45.17;22.33;;;3.10;82.00;;;;;;5052844;28;20052;-73
2021/12/18 11:19:06;;;;;;;42.33;21.70;;;3.10;81.60;;;;;;5055418;28;20036;-73
2021/12/18 11:21:34;;;;;;;39.22;21.73;;;3.10;81.50;;;;;;5055230;28;20025;-74
2021/12/18 11:24:06;;;;;;;37.08;19.27;;;3.00;81.40;;;;;;5055336;28;20029;-74
2021/12/18 11:26:41;;;;;;;36.05;18.58;;;3.10;81.60;;;;;;5054948;28;20024;-74
2021/12/18 11:29:40;;;;;;;36.70;18.05;;;3.20;81.60;;;;;;5055046;28;20031;-74
2021/12/18 11:32:10;;;;;;;37.80;18.33;;;3.30;81.30;;;;;;5054791;28;20033;-74
2021/12/18 11:34:38;;;;;;;38.08;20.10;;;3.10;80.50;;;;;;5054902;28;20052;-74
2021/12/18 11:37:06;;;;;;;37.25;17.95;;;3.10;80.70;;;;;;5055012;28;20110;-74
2021/12/18 11:39:33;;;;;;;38.60;19.52;;;2.80;81.30;;;;;;5036875;28;20362;-74
2021/12/18 11:41:59;;;;;;;36.10;19.02;;;2.80;82.10;;;;;;5054788;28;20529;-75
2021/12/18 11:44:41;;;;;;;31.73;16.85;;;2.60;83.00;;;;;;5055295;28;20100;-75
2021/12/18 11:47:56;;;;;;;34.42;18.10;;;2.50;84.10;;;;;;5054771;28;20029;-74
2021/12/18 11:50:34;;;;;;;37.55;17.83;;;2.60;84.10;;;;;;5046881;28;20493;-74
2021/12/18 11:53:10;;;;;;;38.00;19.33;;;2.70;83.90;;;;;;5054706;28;20521;-73
2021/12/18 11:55:50;;;;;;;34.42;16.48;;;2.70;83.60;;;;;;5054286;28;20028;-74
2021/12/18 11:58:18;;;;;;;36.22;18.02;;;2.90;83.50;;;;;;5054600;28;20088;-74
2021/12/18 12:00:45;;;;;;;33.75;17.45;;;3.00;82.90;;;;;;5036640;28;20029;-74
2021/12/18 12:03:32;;;;;;;32.33;16.65;;;3.00;82.30;;;;;;5054308;28;20021;-77
2021/12/18 12:05:59;;;;;;;29.92;16.13;;;3.00;82.30;;;;;;5054490;28;20428;-75
2021/12/18 12:08:41;;;;;;;35.03;17.55;;;3.00;82.70;;;;;;5054484;28;20377;-75
2021/12/18 12:11:17;;;;;;;29.30;15.60;;;3.10;82.70;;;;;;5054499;28;20029;-75
2021/12/18 12:13:58;;;;;;;29.38;14.43;;;3.10;82.70;;;;;;5054476;28;20032;-74
2021/12/18 12:16:48;;;;;;;26.13;14.13;;;3.20;82.30;;;;;;5054472;28;20099;-74
2021/12/18 12:19:16;;;;;;;24.77;12.68;;;3.20;81.80;;;;;;5054350;28;20021;-74
2021/12/18 12:21:47;;;;;;;26.75;14.10;;;3.10;82.10;;;;;;5054269;28;20442;-75
2021/12/18 12:24:15;;;;;;;25.50;14.30;;;3.00;82.40;;;;;;5054503;28;20053;-75
2021/12/18 12:26:40;;;;;;;27.90;14.05;;;3.00;82.50;;;;;;5054212;28;20029;-74
2021/12/18 12:29:07;;;;;;;22.73;12.55;;;3.00;82.60;;;;;;5053757;28;20070;-75
2021/12/18 12:31:34;;;;;;;25.58;13.23;;;3.00;82.70;;;;;;5036350;28;20128;-75
2021/12/18 12:34:19;;;;;;;25.80;13.20;;;3.10;82.50;;;;;;5053742;28;20037;-74
2021/12/18 12:36:45;;;;;;;28.67;15.13;;;2.90;82.20;;;;;;5053933;28;20542;-74
2021/12/18 12:39:14;;;;;;;28.25;14.43;;;2.80;82.90;;;;;;5054029;28;20029;-74
2021/12/18 12:41:51;;;;;;;33.88;15.55;;;2.60;84.10;;;;;;5053992;28;20024;-75
2021/12/18 12:44:24;;;;;;;28.30;14.63;;;2.60;84.20;;;;;;5053799;28;20419;-74
2021/12/18 12:47:15;;;;;;;25.33;13.60;;;2.50;84.60;;;;;;5053686;28;20124;-74
2021/12/18 12:49:42;;;;;;;26.65;14.23;;;2.40;85.70;;;;;;5044820;28;20139;-73
2021/12/18 12:52:11;;;;;;;24.08;12.57;;;2.60;85.50;;;;;;5053903;28;20079;-74
2021/12/18 12:54:52;;;;;;;29.95;14.43;;;2.70;85.00;;;;;;5053847;28;20358;-74
2021/12/18 12:57:23;;;;;;;27.08;14.27;;;2.80;84.70;;;;;;5053713;28;20453;-77
2021/12/18 13:00:15;;;;;;;23.70;12.52;;;2.80;84.50;;;;;;5053492;28;20025;-74
2021/12/18 13:02:49;;;;;;;28.92;14.20;;;3.00;84.20;;;;;;5053165;28;20031;-73
2021/12/18 13:05:15;;;;;;;26.77;14.10;;;3.10;83.40;;;;;;5053255;28;20025;-74
2021/12/18 13:07:45;;;;;;;30.10;15.10;;;3.10;83.40;;;;;;5053148;28;20113;-73
2021/12/18 13:10:11;;;;;;;28.08;15.48;;;3.10;83.00;;;;;;5052873;28;20025;-74
2021/12/18 13:12:59;;;;;;;24.95;13.65;;;3.10;83.10;;;;;;5053240;28;20525;-74
2021/12/18 13:15:26;;;;;;;31.45;16.90;;;3.20;83.20;;;;;;5053191;28;20028;-74
2021/12/18 13:18:08;;;;;;;35.15;16.73;;;3.10;84.00;;;;;;5053530;28;20488;-73
2021/12/18 13:20:41;;;;;;;28.88;14.82;;;3.20;84.50;;;;;;5053024;28;20025;-74
2021/12/18 13:23:07;;;;;;;29.80;16.13;;;3.30;83.80;;;;;;5053191;28;20047;-74
2021/12/18 13:25:33;;;;;;;33.92;17.80;;;3.30;83.10;;;;;;5052851;28;20465;-74
2021/12/18 13:28:04;;;;;;;29.67;16.00;;;3.30;82.40;;;;;;5035081;28;20025;-74
2021/12/18 13:30:35;;;;;;;32.97;15.93;;;3.30;82.20;;;;;;5052942;28;20063;-74